sensor_id;sensor_type;location;lat;lon;timestamp;pressure;altitude;pressure_sealevel;temperature;humidity
70242;BME280;57631;52.218;0.108;2022-12-18T00:00:50;102308.87;;;2.17;61.44
70242;BME280;57631;52.218;0.108;2022-12-18T00:03:16;102317.96;;;2.58;58.66
70242;BME280;57631;52.218;0.108;2022-12-18T00:05:47;102319.73;;;2.11;64.45
70242;BME280;57631;52.218;0.108;2022-12-18T00:08:07;102318.74;;;3.19;60.65
70242;BME280;57631;52.218;0.108;2022-12-18T00:10:32;102315.48;;;3.57;57.77
70242;BME280;57631;52.218;0.108;2022-12-18T00:12:57;102317.91;;;3.05;58.95
70242;BME280;57631;52.218;0.108;2022-12-18T00:15:22;102315.68;;;3.36;58.92
70242;BME280;57631;52.218;0.108;2022-12-18T00:17:48;102311.34;;;3.40;57.49
70242;BME280;57631;52.218;0.108;2022-12-18T00:20:13;102307.53;;;2.20;60.91
70242;BME280;57631;52.218;0.108;2022-12-18T00:22:38;102306.40;;;3.07;58.07
70242;BME280;57631;52.218;0.108;2022-12-18T00:25:04;102299.19;;;3.61;55.94
70242;BME280;57631;52.218;0.108;2022-12-18T00:27:29;102298.25;;;2.79;58.25
70242;BME280;57631;52.218;0.108;2022-12-18T00:29:54;102296.19;;;2.95;58.06
70242;BME280;57631;52.218;0.108;2022-12-18T00:32:20;102292.30;;;2.66;57.38
70242;BME280;57631;52.218;0.108;2022-12-18T00:34:45;102283.96;;;1.51;62.26
70242;BME280;57631;52.218;0.108;2022-12-18T00:37:10;102277.43;;;1.26;66.84
70242;BME280;57631;52.218;0.108;2022-12-18T00:39:36;102280.22;;;1.88;62.10
70242;BME280;57631;52.218;0.108;2022-12-18T00:42:02;102283.98;;;2.55;60.09
70242;BME280;57631;52.218;0.108;2022-12-18T00:44:27;102281.02;;;0.26;66.84
70242;BME280;57631;52.218;0.108;2022-12-18T00:46:52;102283.13;;;0.90;67.64
70242;BME280;57631;52.218;0.108;2022-12-18T00:49:19;102283.81;;;-0.12;69.97
70242;BME280;57631;52.218;0.108;2022-12-18T00:51:43;102285.44;;;0.06;69.62
70242;BME280;57631;52.218;0.108;2022-12-18T00:54:10;102274.86;;;1.13;67.75
70242;BME280;57631;52.218;0.108;2022-12-18T00:56:36;102267.72;;;1.08;66.39
70242;BME280;57631;52.218;0.108;2022-12-18T00:59:00;102277.63;;;1.62;65.30
70242;BME280;57631;52.218;0.108;2022-12-18T01:01:26;102275.57;;;0.95;66.43
70242;BME280;57631;52.218;0.108;2022-12-18T01:03:51;102273.88;;;0.45;69.93
70242;BME280;57631;52.218;0.108;2022-12-18T01:06:17;102268.61;;;-0.11;71.01
70242;BME280;57631;52.218;0.108;2022-12-18T01:08:43;102266.02;;;-1.56;79.26
70242;BME280;57631;52.218;0.108;2022-12-18T01:11:10;102262.50;;;-0.08;73.76
70242;BME280;57631;52.218;0.108;2022-12-18T01:13:33;102257.23;;;-0.01;70.03
70242;BME280;57631;52.218;0.108;2022-12-18T01:15:59;102249.37;;;-0.30;74.65
70242;BME280;57631;52.218;0.108;2022-12-18T01:18:24;102253.90;;;-0.41;72.95
70242;BME280;57631;52.218;0.108;2022-12-18T01:20:50;102248.88;;;0.74;71.00
70242;BME280;57631;52.218;0.108;2022-12-18T01:23:16;102249.30;;;-0.83;73.91
70242;BME280;57631;52.218;0.108;2022-12-18T01:25:41;102253.79;;;0.26;71.95
70242;BME280;57631;52.218;0.108;2022-12-18T01:28:07;102255.04;;;0.63;72.02
70242;BME280;57631;52.218;0.108;2022-12-18T01:30:33;102258.09;;;-0.01;73.97
70242;BME280;57631;52.218;0.108;2022-12-18T01:32:58;102253.99;;;0.80;70.87
70242;BME280;57631;52.218;0.108;2022-12-18T01:35:24;102254.87;;;0.74;69.24
70242;BME280;57631;52.218;0.108;2022-12-18T01:37:49;102253.34;;;-0.74;73.81
70242;BME280;57631;52.218;0.108;2022-12-18T01:40:15;102247.49;;;-0.02;72.01
70242;BME280;57631;52.218;0.108;2022-12-18T01:42:40;102258.86;;;-0.78;76.74
70242;BME280;57631;52.218;0.108;2022-12-18T01:47:35;102250.11;;;-1.11;78.55
70242;BME280;57631;52.218;0.108;2022-12-18T01:49:57;102245.10;;;-0.25;74.73
70242;BME280;57631;52.218;0.108;2022-12-18T01:52:22;102243.32;;;-0.08;74.24
70242;BME280;57631;52.218;0.108;2022-12-18T01:54:48;102239.48;;;0.41;73.65
70242;BME280;57631;52.218;0.108;2022-12-18T01:57:13;102242.65;;;-0.41;75.60
70242;BME280;57631;52.218;0.108;2022-12-18T01:59:39;102239.14;;;-1.03;77.28
70242;BME280;57631;52.218;0.108;2022-12-18T02:02:04;102232.11;;;-0.69;78.98
70242;BME280;57631;52.218;0.108;2022-12-18T02:04:29;102231.58;;;0.30;73.09
70242;BME280;57631;52.218;0.108;2022-12-18T02:06:59;102232.36;;;0.25;73.54
70242;BME280;57631;52.218;0.108;2022-12-18T02:09:23;102233.24;;;0.84;70.00
70242;BME280;57631;52.218;0.108;2022-12-18T02:11:51;102232.87;;;-1.04;79.25
70242;BME280;57631;52.218;0.108;2022-12-18T02:14:18;102234.04;;;-0.08;73.31
70242;BME280;57631;52.218;0.108;2022-12-18T02:16:42;102233.87;;;0.27;71.66
70242;BME280;57631;52.218;0.108;2022-12-18T02:19:14;102243.59;;;0.09;72.83
70242;BME280;57631;52.218;0.108;2022-12-18T02:21:34;102247.02;;;-0.21;73.93
70242;BME280;57631;52.218;0.108;2022-12-18T02:23:59;102252.76;;;-0.44;75.24
70242;BME280;57631;52.218;0.108;2022-12-18T02:26:21;102253.30;;;-0.88;76.66
70242;BME280;57631;52.218;0.108;2022-12-18T02:28:47;102258.10;;;-1.03;77.50
70242;BME280;57631;52.218;0.108;2022-12-18T02:31:14;102258.95;;;-0.46;76.82
70242;BME280;57631;52.218;0.108;2022-12-18T02:33:36;102261.99;;;-1.23;78.14
70242;BME280;57631;52.218;0.108;2022-12-18T02:36:02;102266.74;;;-1.08;80.73
70242;BME280;57631;52.218;0.108;2022-12-18T02:38:28;102267.17;;;0.14;74.86
70242;BME280;57631;52.218;0.108;2022-12-18T02:40:53;102267.26;;;-0.25;79.45
70242;BME280;57631;52.218;0.108;2022-12-18T02:43:17;102277.00;;;-1.65;77.43
70242;BME280;57631;52.218;0.108;2022-12-18T02:45:48;102276.87;;;-0.05;74.75
70242;BME280;57631;52.218;0.108;2022-12-18T02:48:08;102281.87;;;0.33;74.08
70242;BME280;57631;52.218;0.108;2022-12-18T02:50:38;102276.68;;;-1.57;78.70
70242;BME280;57631;52.218;0.108;2022-12-18T02:53:11;102271.93;;;-1.16;78.50
70242;BME280;57631;52.218;0.108;2022-12-18T02:55:33;102268.53;;;-1.10;79.51
70242;BME280;57631;52.218;0.108;2022-12-18T02:57:54;102275.40;;;-0.99;79.31
70242;BME280;57631;52.218;0.108;2022-12-18T03:00:18;102273.74;;;-1.59;80.99
70242;BME280;57631;52.218;0.108;2022-12-18T03:02:45;102274.36;;;-2.46;81.95
70242;BME280;57631;52.218;0.108;2022-12-18T03:05:12;102276.96;;;-0.65;78.83
70242;BME280;57631;52.218;0.108;2022-12-18T03:07:37;102279.81;;;0.62;72.42
70242;BME280;57631;52.218;0.108;2022-12-18T03:09:58;102283.10;;;0.15;74.64
70242;BME280;57631;52.218;0.108;2022-12-18T03:12:29;102281.18;;;-0.10;75.90
70242;BME280;57631;52.218;0.108;2022-12-18T03:14:51;102280.32;;;0.21;73.76
70242;BME280;57631;52.218;0.108;2022-12-18T03:17:17;102272.09;;;0.74;69.45
70242;BME280;57631;52.218;0.108;2022-12-18T03:19:41;102272.81;;;0.38;71.64
70242;BME280;57631;52.218;0.108;2022-12-18T03:22:08;102268.88;;;1.32;69.36
70242;BME280;57631;52.218;0.108;2022-12-18T03:24:31;102271.91;;;0.24;69.95
70242;BME280;57631;52.218;0.108;2022-12-18T03:27:00;102271.00;;;1.48;67.65
70242;BME280;57631;52.218;0.108;2022-12-18T03:29:26;102262.94;;;0.71;67.69
70242;BME280;57631;52.218;0.108;2022-12-18T03:31:51;102259.31;;;1.28;69.93
70242;BME280;57631;52.218;0.108;2022-12-18T03:34:15;102249.93;;;1.86;66.59
70242;BME280;57631;52.218;0.108;2022-12-18T03:36:38;102250.40;;;1.06;69.36
70242;BME280;57631;52.218;0.108;2022-12-18T03:39:03;102238.57;;;-0.48;73.79
70242;BME280;57631;52.218;0.108;2022-12-18T03:41:32;102238.34;;;-0.57;74.62
70242;BME280;57631;52.218;0.108;2022-12-18T03:43:57;102233.13;;;0.49;70.43
70242;BME280;57631;52.218;0.108;2022-12-18T03:46:26;102237.44;;;-0.49;76.73
70242;BME280;57631;52.218;0.108;2022-12-18T03:48:51;102231.02;;;0.84;70.50
70242;BME280;57631;52.218;0.108;2022-12-18T03:51:14;102227.46;;;-0.21;76.91
70242;BME280;57631;52.218;0.108;2022-12-18T03:53:41;102222.85;;;1.40;67.41
70242;BME280;57631;52.218;0.108;2022-12-18T03:56:02;102223.11;;;1.10;65.30
70242;BME280;57631;52.218;0.108;2022-12-18T03:58:27;102222.89;;;1.67;64.89
70242;BME280;57631;52.218;0.108;2022-12-18T04:00:56;102225.93;;;2.16;64.41
70242;BME280;57631;52.218;0.108;2022-12-18T04:03:19;102226.58;;;2.11;63.11
70242;BME280;57631;52.218;0.108;2022-12-18T04:05:44;102223.65;;;1.85;64.53
70242;BME280;57631;52.218;0.108;2022-12-18T04:08:08;102214.72;;;1.84;65.21
70242;BME280;57631;52.218;0.108;2022-12-18T04:10:34;102213.43;;;1.69;64.95
70242;BME280;57631;52.218;0.108;2022-12-18T04:12:59;102204.33;;;1.43;65.67
70242;BME280;57631;52.218;0.108;2022-12-18T04:15:25;102191.67;;;0.39;69.64
70242;BME280;57631;52.218;0.108;2022-12-18T04:17:51;102187.44;;;-0.09;69.77
70242;BME280;57631;52.218;0.108;2022-12-18T04:20:17;102187.91;;;-0.17;72.27
70242;BME280;57631;52.218;0.108;2022-12-18T04:22:42;102194.52;;;0.18;72.12
70242;BME280;57631;52.218;0.108;2022-12-18T04:25:08;102195.47;;;0.53;70.91
70242;BME280;57631;52.218;0.108;2022-12-18T04:27:33;102195.61;;;1.06;70.26
70242;BME280;57631;52.218;0.108;2022-12-18T04:29:58;102185.67;;;1.24;68.25
70242;BME280;57631;52.218;0.108;2022-12-18T04:32:24;102185.11;;;0.92;68.93
70242;BME280;57631;52.218;0.108;2022-12-18T04:34:50;102182.21;;;0.37;71.53
70242;BME280;57631;52.218;0.108;2022-12-18T04:37:16;102179.01;;;-0.75;75.31
70242;BME280;57631;52.218;0.108;2022-12-18T04:39:41;102176.51;;;-0.61;77.04
70242;BME280;57631;52.218;0.108;2022-12-18T04:42:07;102167.72;;;-0.59;77.11
70242;BME280;57631;52.218;0.108;2022-12-18T04:44:32;102154.73;;;-1.39;81.44
70242;BME280;57631;52.218;0.108;2022-12-18T04:46:58;102151.71;;;-0.77;77.97
70242;BME280;57631;52.218;0.108;2022-12-18T04:49:23;102143.59;;;-0.03;75.31
70242;BME280;57631;52.218;0.108;2022-12-18T04:51:48;102140.48;;;-1.03;78.50
70242;BME280;57631;52.218;0.108;2022-12-18T04:54:14;102145.51;;;-1.40;81.64
70242;BME280;57631;52.218;0.108;2022-12-18T04:56:39;102151.30;;;-1.12;80.24
70242;BME280;57631;52.218;0.108;2022-12-18T04:59:04;102146.92;;;-0.76;79.15
70242;BME280;57631;52.218;0.108;2022-12-18T05:01:30;102135.87;;;0.11;75.83
70242;BME280;57631;52.218;0.108;2022-12-18T05:03:55;102132.70;;;-1.12;81.10
70242;BME280;57631;52.218;0.108;2022-12-18T05:06:20;102134.78;;;-1.58;80.04
70242;BME280;57631;52.218;0.108;2022-12-18T05:08:46;102135.63;;;-1.17;81.77
70242;BME280;57631;52.218;0.108;2022-12-18T05:11:14;102135.30;;;-1.31;80.41
70242;BME280;57631;52.218;0.108;2022-12-18T05:13:37;102131.50;;;-0.55;76.91
70242;BME280;57631;52.218;0.108;2022-12-18T05:16:03;102126.88;;;-0.27;77.51
70242;BME280;57631;52.218;0.108;2022-12-18T05:18:28;102124.57;;;-1.68;83.56
70242;BME280;57631;52.218;0.108;2022-12-18T05:20:54;102109.11;;;-0.96;79.86
70242;BME280;57631;52.218;0.108;2022-12-18T05:23:19;102099.93;;;-0.88;80.27
70242;BME280;57631;52.218;0.108;2022-12-18T05:25:49;102079.69;;;-0.31;78.06
70242;BME280;57631;52.218;0.108;2022-12-18T05:28:09;102073.36;;;-0.20;79.00
70242;BME280;57631;52.218;0.108;2022-12-18T05:30:35;102063.04;;;-0.31;79.04
70242;BME280;57631;52.218;0.108;2022-12-18T05:33:00;102062.14;;;-0.90;79.68
70242;BME280;57631;52.218;0.108;2022-12-18T05:35:26;102051.98;;;-1.21;82.03
70242;BME280;57631;52.218;0.108;2022-12-18T05:37:51;102047.97;;;-0.99;81.90
70242;BME280;57631;52.218;0.108;2022-12-18T05:40:17;102049.11;;;-1.22;80.25
70242;BME280;57631;52.218;0.108;2022-12-18T05:42:42;102041.29;;;-0.56;79.98
70242;BME280;57631;52.218;0.108;2022-12-18T05:45:08;102034.24;;;-0.93;79.76
70242;BME280;57631;52.218;0.108;2022-12-18T05:47:33;102028.90;;;0.03;77.42
70242;BME280;57631;52.218;0.108;2022-12-18T05:49:58;102024.74;;;-0.28;77.52
70242;BME280;57631;52.218;0.108;2022-12-18T05:52:24;102018.30;;;-0.69;78.08
70242;BME280;57631;52.218;0.108;2022-12-18T05:54:49;102016.77;;;-0.33;77.55
70242;BME280;57631;52.218;0.108;2022-12-18T05:57:15;102021.79;;;-0.84;78.46
70242;BME280;57631;52.218;0.108;2022-12-18T05:59:40;102022.58;;;-0.74;80.01
70242;BME280;57631;52.218;0.108;2022-12-18T06:02:06;102027.46;;;-0.67;81.58
70242;BME280;57631;52.218;0.108;2022-12-18T06:04:31;102030.37;;;-0.43;79.41
70242;BME280;57631;52.218;0.108;2022-12-18T06:06:57;102036.98;;;0.60;75.97
70242;BME280;57631;52.218;0.108;2022-12-18T06:09:22;102031.75;;;-0.45;77.73
70242;BME280;57631;52.218;0.108;2022-12-18T06:11:48;102028.73;;;-0.12;77.38
70242;BME280;57631;52.218;0.108;2022-12-18T06:14:14;102022.96;;;0.24;74.73
70242;BME280;57631;52.218;0.108;2022-12-18T06:16:39;102011.16;;;0.01;78.10
70242;BME280;57631;52.218;0.108;2022-12-18T06:19:05;102005.67;;;0.27;76.76
70242;BME280;57631;52.218;0.108;2022-12-18T06:21:31;102001.32;;;-0.86;79.50
70242;BME280;57631;52.218;0.108;2022-12-18T06:23:56;102013.82;;;-1.39;82.78
70242;BME280;57631;52.218;0.108;2022-12-18T06:26:22;102009.36;;;-1.19;81.82
70242;BME280;57631;52.218;0.108;2022-12-18T06:28:46;102006.84;;;-1.22;81.85
70242;BME280;57631;52.218;0.108;2022-12-18T06:31:12;102017.87;;;-1.45;85.07
70242;BME280;57631;52.218;0.108;2022-12-18T06:33:38;102016.85;;;-0.38;81.61
70242;BME280;57631;52.218;0.108;2022-12-18T06:36:05;102014.00;;;-1.37;84.35
70242;BME280;57631;52.218;0.108;2022-12-18T06:38:28;102002.83;;;-1.18;84.00
70242;BME280;57631;52.218;0.108;2022-12-18T06:40:54;102001.07;;;-1.19;83.00
70242;BME280;57631;52.218;0.108;2022-12-18T06:43:19;101998.84;;;-1.82;83.65
70242;BME280;57631;52.218;0.108;2022-12-18T06:45:45;102002.00;;;-0.91;82.04
70242;BME280;57631;52.218;0.108;2022-12-18T06:48:10;102008.56;;;-0.90;80.21
70242;BME280;57631;52.218;0.108;2022-12-18T06:50:35;102013.87;;;-2.10;87.03
70242;BME280;57631;52.218;0.108;2022-12-18T06:53:01;102002.13;;;-1.23;84.43
70242;BME280;57631;52.218;0.108;2022-12-18T06:55:27;102000.49;;;-1.28;82.50
70242;BME280;57631;52.218;0.108;2022-12-18T06:57:52;102008.41;;;-0.30;80.99
70242;BME280;57631;52.218;0.108;2022-12-18T07:00:18;102008.87;;;-0.76;79.19
70242;BME280;57631;52.218;0.108;2022-12-18T07:02:44;101995.87;;;-0.17;79.09
70242;BME280;57631;52.218;0.108;2022-12-18T07:05:10;101994.39;;;-0.64;80.64
70242;BME280;57631;52.218;0.108;2022-12-18T07:07:36;101998.34;;;-1.03;83.12
70242;BME280;57631;52.218;0.108;2022-12-18T07:10:01;101989.34;;;-0.17;80.72
70242;BME280;57631;52.218;0.108;2022-12-18T07:12:26;101992.15;;;0.18;77.89
70242;BME280;57631;52.218;0.108;2022-12-18T07:14:52;101996.17;;;0.38;75.30
70242;BME280;57631;52.218;0.108;2022-12-18T07:17:17;101986.78;;;-0.04;74.80
70242;BME280;57631;52.218;0.108;2022-12-18T07:19:43;101986.46;;;0.27;74.48
70242;BME280;57631;52.218;0.108;2022-12-18T07:22:09;101988.91;;;0.26;74.49
70242;BME280;57631;52.218;0.108;2022-12-18T07:24:34;101991.34;;;0.18;74.66
70242;BME280;57631;52.218;0.108;2022-12-18T07:26:59;101984.46;;;-0.13;75.45
70242;BME280;57631;52.218;0.108;2022-12-18T07:29:25;101990.58;;;-0.63;78.77
70242;BME280;57631;52.218;0.108;2022-12-18T07:31:50;101992.32;;;-0.39;78.85
70242;BME280;57631;52.218;0.108;2022-12-18T07:34:16;101983.51;;;-0.43;77.96
70242;BME280;57631;52.218;0.108;2022-12-18T07:36:41;101974.24;;;0.14;77.76
70242;BME280;57631;52.218;0.108;2022-12-18T07:39:06;101967.01;;;-0.74;78.12
70242;BME280;57631;52.218;0.108;2022-12-18T07:41:31;101966.21;;;-0.58;79.19
70242;BME280;57631;52.218;0.108;2022-12-18T07:43:56;101956.79;;;-0.20;76.44
70242;BME280;57631;52.218;0.108;2022-12-18T07:46:22;101955.22;;;-0.55;77.28
70242;BME280;57631;52.218;0.108;2022-12-18T07:48:48;101943.02;;;-0.22;77.84
70242;BME280;57631;52.218;0.108;2022-12-18T07:51:14;101933.33;;;-0.78;78.01
70242;BME280;57631;52.218;0.108;2022-12-18T07:53:39;101928.57;;;0.37;77.88
70242;BME280;57631;52.218;0.108;2022-12-18T07:56:06;101916.46;;;-0.09;78.11
70242;BME280;57631;52.218;0.108;2022-12-18T07:58:30;101923.65;;;-0.60;81.43
70242;BME280;57631;52.218;0.108;2022-12-18T08:01:04;101928.26;;;-0.67;80.28
70242;BME280;57631;52.218;0.108;2022-12-18T08:03:21;101925.97;;;-1.04;80.46
70242;BME280;57631;52.218;0.108;2022-12-18T08:05:46;101929.20;;;-0.67;78.95
70242;BME280;57631;52.218;0.108;2022-12-18T08:08:12;101927.88;;;-0.48;78.21
70242;BME280;57631;52.218;0.108;2022-12-18T08:10:37;101923.87;;;-0.46;77.84
70242;BME280;57631;52.218;0.108;2022-12-18T08:13:02;101921.43;;;-0.46;77.91
70242;BME280;57631;52.218;0.108;2022-12-18T08:15:27;101920.04;;;-0.97;81.48
70242;BME280;57631;52.218;0.108;2022-12-18T08:17:56;101925.51;;;-0.93;80.72
70242;BME280;57631;52.218;0.108;2022-12-18T08:20:18;101931.85;;;-1.17;79.34
70242;BME280;57631;52.218;0.108;2022-12-18T08:22:44;101931.77;;;-0.58;79.10
70242;BME280;57631;52.218;0.108;2022-12-18T08:25:10;101936.60;;;0.41;76.04
70242;BME280;57631;52.218;0.108;2022-12-18T08:27:35;101930.70;;;-0.31;75.93
70242;BME280;57631;52.218;0.108;2022-12-18T08:30:00;101936.08;;;-0.12;75.52
70242;BME280;57631;52.218;0.108;2022-12-18T08:32:27;101937.97;;;0.51;74.03
70242;BME280;57631;52.218;0.108;2022-12-18T08:34:51;101935.78;;;0.15;74.72
70242;BME280;57631;52.218;0.108;2022-12-18T08:37:17;101927.06;;;-0.56;76.26
70242;BME280;57631;52.218;0.108;2022-12-18T08:39:42;101924.70;;;0.40;76.58
70242;BME280;57631;52.218;0.108;2022-12-18T08:42:07;101928.51;;;0.43;75.56
70242;BME280;57631;52.218;0.108;2022-12-18T08:44:33;101947.09;;;0.49;74.78
70242;BME280;57631;52.218;0.108;2022-12-18T08:46:58;101938.21;;;-0.07;75.40
70242;BME280;57631;52.218;0.108;2022-12-18T08:49:23;101921.62;;;0.95;72.94
70242;BME280;57631;52.218;0.108;2022-12-18T08:51:54;101913.58;;;0.47;72.12
70242;BME280;57631;52.218;0.108;2022-12-18T08:54:14;101905.80;;;0.20;73.61
70242;BME280;57631;52.218;0.108;2022-12-18T08:56:40;101920.96;;;-0.19;74.21
70242;BME280;57631;52.218;0.108;2022-12-18T08:59:05;101939.40;;;-0.23;75.53
70242;BME280;57631;52.218;0.108;2022-12-18T09:01:31;101929.44;;;1.07;71.01
70242;BME280;57631;52.218;0.108;2022-12-18T09:03:56;101920.94;;;1.00;70.96
70242;BME280;57631;52.218;0.108;2022-12-18T09:06:22;101933.64;;;0.69;70.61
70242;BME280;57631;52.218;0.108;2022-12-18T09:08:48;101942.24;;;0.34;73.29
70242;BME280;57631;52.218;0.108;2022-12-18T09:11:19;101935.44;;;1.32;69.28
70242;BME280;57631;52.218;0.108;2022-12-18T09:13:38;101943.31;;;1.93;66.52
70242;BME280;57631;52.218;0.108;2022-12-18T09:16:04;101946.12;;;2.49;65.42
70242;BME280;57631;52.218;0.108;2022-12-18T09:18:29;101937.87;;;2.06;64.74
70242;BME280;57631;52.218;0.108;2022-12-18T09:20:55;101930.22;;;0.87;69.01
70242;BME280;57631;52.218;0.108;2022-12-18T09:23:20;101926.51;;;2.11;64.43
70242;BME280;57631;52.218;0.108;2022-12-18T09:25:46;101934.92;;;2.89;61.98
70242;BME280;57631;52.218;0.108;2022-12-18T09:28:13;101932.16;;;3.53;59.90
70242;BME280;57631;52.218;0.108;2022-12-18T09:30:37;101937.87;;;3.97;57.57
70242;BME280;57631;52.218;0.108;2022-12-18T09:33:02;101924.04;;;2.97;59.12
70242;BME280;57631;52.218;0.108;2022-12-18T09:35:28;101915.04;;;2.94;59.25
70242;BME280;57631;52.218;0.108;2022-12-18T09:37:53;101906.22;;;3.76;57.86
70242;BME280;57631;52.218;0.108;2022-12-18T09:40:22;101912.21;;;1.63;64.31
70242;BME280;57631;52.218;0.108;2022-12-18T09:42:48;101909.40;;;2.74;61.49
70242;BME280;57631;52.218;0.108;2022-12-18T09:45:14;101907.78;;;2.64;60.94
70242;BME280;57631;52.218;0.108;2022-12-18T09:47:37;101905.82;;;3.38;60.03
70242;BME280;57631;52.218;0.108;2022-12-18T09:50:04;101897.02;;;3.25;59.59
70242;BME280;57631;52.218;0.108;2022-12-18T09:52:29;101892.56;;;2.70;62.74
70242;BME280;57631;52.218;0.108;2022-12-18T09:54:54;101886.96;;;2.02;63.49
70242;BME280;57631;52.218;0.108;2022-12-18T09:57:19;101888.80;;;0.98;65.73
70242;BME280;57631;52.218;0.108;2022-12-18T09:59:44;101899.87;;;2.07;63.55
70242;BME280;57631;52.218;0.108;2022-12-18T10:02:14;101899.85;;;1.67;62.74
70242;BME280;57631;52.218;0.108;2022-12-18T10:04:32;101909.70;;;0.33;68.64
70242;BME280;57631;52.218;0.108;2022-12-18T10:07:03;101909.72;;;1.49;67.72
70242;BME280;57631;52.218;0.108;2022-12-18T10:09:30;101899.75;;;0.82;67.37
70242;BME280;57631;52.218;0.108;2022-12-18T10:11:55;101897.39;;;2.07;64.90
70242;BME280;57631;52.218;0.108;2022-12-18T10:14:18;101902.01;;;1.85;65.49
70242;BME280;57631;52.218;0.108;2022-12-18T10:16:45;101907.70;;;0.90;69.17
70242;BME280;57631;52.218;0.108;2022-12-18T10:19:17;101900.45;;;1.63;66.45
70242;BME280;57631;52.218;0.108;2022-12-18T10:21:33;101888.10;;;2.60;63.85
70242;BME280;57631;52.218;0.108;2022-12-18T10:24:01;101890.56;;;2.95;60.46
70242;BME280;57631;52.218;0.108;2022-12-18T10:26:21;101880.97;;;2.34;62.34
70242;BME280;57631;52.218;0.108;2022-12-18T10:28:45;101875.32;;;2.26;63.21
70242;BME280;57631;52.218;0.108;2022-12-18T10:31:15;101862.84;;;1.77;64.31
70242;BME280;57631;52.218;0.108;2022-12-18T10:33:37;101857.91;;;1.82;64.20
70242;BME280;57631;52.218;0.108;2022-12-18T10:36:02;101860.13;;;1.50;66.65
70242;BME280;57631;52.218;0.108;2022-12-18T10:38:29;101849.37;;;2.35;63.72
70242;BME280;57631;52.218;0.108;2022-12-18T10:40:55;101842.96;;;2.42;62.92
70242;BME280;57631;52.218;0.108;2022-12-18T10:43:22;101831.44;;;2.31;61.42
70242;BME280;57631;52.218;0.108;2022-12-18T10:50:36;101815.56;;;3.17;60.91
70242;BME280;57631;52.218;0.108;2022-12-18T10:53:03;101804.53;;;1.47;63.61
70242;BME280;57631;52.218;0.108;2022-12-18T10:55:30;101804.72;;;1.54;64.93
70242;BME280;57631;52.218;0.108;2022-12-18T10:57:51;101808.86;;;1.80;66.10
70242;BME280;57631;52.218;0.108;2022-12-18T11:00:24;101809.07;;;0.55;69.41
70242;BME280;57631;52.218;0.108;2022-12-18T11:02:42;101807.00;;;2.52;63.32
70242;BME280;57631;52.218;0.108;2022-12-18T11:10:03;101794.78;;;1.06;66.60
70242;BME280;57631;52.218;0.108;2022-12-18T11:12:24;101792.50;;;1.19;66.53
70242;BME280;57631;52.218;0.108;2022-12-18T11:14:51;101785.43;;;2.01;66.51
70242;BME280;57631;52.218;0.108;2022-12-18T11:17:19;101777.00;;;0.65;68.71
70242;BME280;57631;52.218;0.108;2022-12-18T11:19:41;101774.49;;;2.00;66.81
70242;BME280;57631;52.218;0.108;2022-12-18T11:24:33;101767.52;;;1.20;69.55
70242;BME280;57631;52.218;0.108;2022-12-18T11:26:57;101763.54;;;1.94;66.00
70242;BME280;57631;52.218;0.108;2022-12-18T11:29:27;101764.09;;;1.19;68.89
70242;BME280;57631;52.218;0.108;2022-12-18T11:31:47;101756.19;;;2.31;66.58
70242;BME280;57631;52.218;0.108;2022-12-18T11:34:19;101747.23;;;1.87;66.45
70242;BME280;57631;52.218;0.108;2022-12-18T11:36:42;101744.92;;;2.20;67.11
70242;BME280;57631;52.218;0.108;2022-12-18T11:39:12;101746.08;;;1.50;67.20
70242;BME280;57631;52.218;0.108;2022-12-18T11:41:32;101742.29;;;0.26;73.51
70242;BME280;57631;52.218;0.108;2022-12-18T11:43:59;101736.35;;;1.29;69.33
70242;BME280;57631;52.218;0.108;2022-12-18T11:46:27;101727.82;;;1.30;68.70
70242;BME280;57631;52.218;0.108;2022-12-18T11:48:52;101718.48;;;2.05;69.37
70242;BME280;57631;52.218;0.108;2022-12-18T11:51:16;101709.33;;;2.47;67.45
70242;BME280;57631;52.218;0.108;2022-12-18T11:53:37;101705.28;;;2.83;64.66
70242;BME280;57631;52.218;0.108;2022-12-18T11:56:11;101688.41;;;0.88;71.00
70242;BME280;57631;52.218;0.108;2022-12-18T11:58:39;101679.23;;;0.88;73.25
70242;BME280;57631;52.218;0.108;2022-12-18T12:00:59;101661.43;;;2.60;66.85
70242;BME280;57631;52.218;0.108;2022-12-18T12:03:29;101661.12;;;1.29;69.57
70242;BME280;57631;52.218;0.108;2022-12-18T12:05:50;101653.79;;;1.92;69.57
70242;BME280;57631;52.218;0.108;2022-12-18T12:08:15;101631.31;;;2.04;69.43
70242;BME280;57631;52.218;0.108;2022-12-18T12:10:46;101621.94;;;2.22;69.00
70242;BME280;57631;52.218;0.108;2022-12-18T12:13:15;101615.87;;;0.74;74.06
70242;BME280;57631;52.218;0.108;2022-12-18T12:15:33;101608.32;;;1.65;71.81
70242;BME280;57631;52.218;0.108;2022-12-18T12:17:55;101601.92;;;2.33;68.79
70242;BME280;57631;52.218;0.108;2022-12-18T12:20:22;101596.07;;;1.46;70.76
70242;BME280;57631;52.218;0.108;2022-12-18T12:22:49;101587.97;;;1.87;70.05
70242;BME280;57631;52.218;0.108;2022-12-18T12:25:19;101585.56;;;1.71;71.82
70242;BME280;57631;52.218;0.108;2022-12-18T12:27:39;101594.27;;;1.29;73.79
70242;BME280;57631;52.218;0.108;2022-12-18T12:30:05;101602.07;;;0.48;75.64
70242;BME280;57631;52.218;0.108;2022-12-18T12:32:35;101585.07;;;1.20;73.63
70242;BME280;57631;52.218;0.108;2022-12-18T12:35:00;101574.54;;;2.31;71.77
70242;BME280;57631;52.218;0.108;2022-12-18T12:37:23;101588.28;;;1.29;71.78
70242;BME280;57631;52.218;0.108;2022-12-18T12:39:43;101587.19;;;1.85;71.80
70242;BME280;57631;52.218;0.108;2022-12-18T12:42:15;101591.88;;;0.85;74.93
70242;BME280;57631;52.218;0.108;2022-12-18T12:44:35;101600.51;;;1.20;74.62
70242;BME280;57631;52.218;0.108;2022-12-18T12:47:15;101585.32;;;-0.11;80.69
70242;BME280;57631;52.218;0.108;2022-12-18T12:49:26;101581.69;;;1.08;74.90
70242;BME280;57631;52.218;0.108;2022-12-18T12:51:56;101577.42;;;1.22;74.55
70242;BME280;57631;52.218;0.108;2022-12-18T12:54:17;101575.45;;;0.26;77.61
70242;BME280;57631;52.218;0.108;2022-12-18T12:56:44;101566.06;;;0.48;77.73
70242;BME280;57631;52.218;0.108;2022-12-18T12:59:11;101559.43;;;1.35;74.82